sensor_id;sensor_type;location;lat;lon;timestamp;P1;durP1;ratioP1;P2;durP2;ratioP2
67757;SDS011;54562;47.620;18.786;2023-06-04T00:02:23;5.80;;;2.20;;
67757;SDS011;54562;47.620;18.786;2023-06-04T00:05:29;4.90;;;2.20;;
67757;SDS011;54562;47.620;18.786;2023-06-04T00:08:35;5.80;;;2.20;;
67757;SDS011;54562;47.620;18.786;2023-06-04T00:11:42;5.10;;;2.20;;
67757;SDS011;54562;47.620;18.786;2023-06-04T00:14:49;5.80;;;2.20;;
67757;SDS011;54562;47.620;18.786;2023-06-04T00:17:56;4.60;;;2.10;;
67757;SDS011;54562;47.620;18.786;2023-06-04T00:21:03;6.50;;;2.10;;
67757;SDS011;54562;47.620;18.786;2023-06-04T00:24:10;5.80;;;2.20;;
67757;SDS011;54562;47.620;18.786;2023-06-04T00:27:16;6.60;;;2.30;;
67757;SDS011;54562;47.620;18.786;2023-06-04T00:30:22;4.10;;;1.80;;
67757;SDS011;54562;47.620;18.786;2023-06-04T00:33:29;6.10;;;2.30;;
67757;SDS011;54562;47.620;18.786;2023-06-04T00:36:35;6.60;;;2.30;;
67757;SDS011;54562;47.620;18.786;2023-06-04T00:39:41;6.60;;;2.20;;
67757;SDS011;54562;47.620;18.786;2023-06-04T00:42:47;6.10;;;2.10;;
67757;SDS011;54562;47.620;18.786;2023-06-04T00:45:54;10.50;;;2.20;;
67757;SDS011;54562;47.620;18.786;2023-06-04T00:49:00;5.00;;;2.00;;
67757;SDS011;54562;47.620;18.786;2023-06-04T00:52:07;4.80;;;2.00;;
67757;SDS011;54562;47.620;18.786;2023-06-04T00:55:14;5.00;;;2.00;;
67757;SDS011;54562;47.620;18.786;2023-06-04T00:58:22;6.90;;;2.40;;
67757;SDS011;54562;47.620;18.786;2023-06-04T01:01:31;6.00;;;2.00;;
67757;SDS011;54562;47.620;18.786;2023-06-04T01:04:44;6.70;;;2.00;;
67757;SDS011;54562;47.620;18.786;2023-06-04T01:07:58;6.30;;;2.00;;
67757;SDS011;54562;47.620;18.786;2023-06-04T01:11:05;5.60;;;1.90;;
67757;SDS011;54562;47.620;18.786;2023-06-04T01:14:11;5.40;;;2.20;;
67757;SDS011;54562;47.620;18.786;2023-06-04T01:20:34;5.30;;;2.10;;
67757;SDS011;54562;47.620;18.786;2023-06-04T01:23:45;5.50;;;1.90;;
67757;SDS011;54562;47.620;18.786;2023-06-04T01:27:02;5.80;;;2.10;;
67757;SDS011;54562;47.620;18.786;2023-06-04T01:30:10;5.90;;;2.10;;
67757;SDS011;54562;47.620;18.786;2023-06-04T01:33:19;4.60;;;1.90;;
67757;SDS011;54562;47.620;18.786;2023-06-04T01:36:25;4.70;;;2.00;;
67757;SDS011;54562;47.620;18.786;2023-06-04T01:39:32;6.10;;;1.90;;
67757;SDS011;54562;47.620;18.786;2023-06-04T01:42:38;6.80;;;2.00;;
67757;SDS011;54562;47.620;18.786;2023-06-04T01:45:44;4.80;;;1.90;;
67757;SDS011;54562;47.620;18.786;2023-06-04T01:48:51;5.50;;;2.00;;
67757;SDS011;54562;47.620;18.786;2023-06-04T01:51:57;6.30;;;1.90;;
67757;SDS011;54562;47.620;18.786;2023-06-04T01:55:03;5.40;;;2.00;;
67757;SDS011;54562;47.620;18.786;2023-06-04T01:58:10;4.70;;;1.90;;
67757;SDS011;54562;47.620;18.786;2023-06-04T02:01:21;4.90;;;1.80;;
67757;SDS011;54562;47.620;18.786;2023-06-04T02:04:27;5.00;;;1.80;;
67757;SDS011;54562;47.620;18.786;2023-06-04T02:07:33;4.60;;;1.90;;
67757;SDS011;54562;47.620;18.786;2023-06-04T02:10:41;4.50;;;1.90;;
67757;SDS011;54562;47.620;18.786;2023-06-04T02:13:47;5.10;;;2.00;;
67757;SDS011;54562;47.620;18.786;2023-06-04T02:16:54;4.30;;;2.10;;
67757;SDS011;54562;47.620;18.786;2023-06-04T02:20:01;5.50;;;1.70;;
67757;SDS011;54562;47.620;18.786;2023-06-04T02:23:09;5.10;;;2.00;;
67757;SDS011;54562;47.620;18.786;2023-06-04T02:29:54;5.80;;;1.90;;
67757;SDS011;54562;47.620;18.786;2023-06-04T02:33:01;6.20;;;2.20;;
67757;SDS011;54562;47.620;18.786;2023-06-04T02:36:09;6.50;;;2.00;;
67757;SDS011;54562;47.620;18.786;2023-06-04T02:39:16;5.40;;;2.10;;
67757;SDS011;54562;47.620;18.786;2023-06-04T02:42:22;5.90;;;2.00;;
67757;SDS011;54562;47.620;18.786;2023-06-04T02:45:28;5.60;;;2.20;;
67757;SDS011;54562;47.620;18.786;2023-06-04T02:48:35;8.50;;;2.00;;
67757;SDS011;54562;47.620;18.786;2023-06-04T02:51:41;5.40;;;1.70;;
67757;SDS011;54562;47.620;18.786;2023-06-04T02:54:48;7.90;;;2.10;;
67757;SDS011;54562;47.620;18.786;2023-06-04T02:57:54;4.90;;;2.00;;
67757;SDS011;54562;47.620;18.786;2023-06-04T03:01:00;4.60;;;2.10;;
67757;SDS011;54562;47.620;18.786;2023-06-04T03:04:07;4.80;;;2.10;;
67757;SDS011;54562;47.620;18.786;2023-06-04T03:07:18;5.50;;;2.10;;
67757;SDS011;54562;47.620;18.786;2023-06-04T03:10:26;4.70;;;1.90;;
67757;SDS011;54562;47.620;18.786;2023-06-04T03:13:32;4.60;;;1.80;;
67757;SDS011;54562;47.620;18.786;2023-06-04T03:16:38;5.60;;;1.90;;
67757;SDS011;54562;47.620;18.786;2023-06-04T03:19:45;5.30;;;1.90;;
67757;SDS011;54562;47.620;18.786;2023-06-04T03:22:52;4.30;;;1.80;;
67757;SDS011;54562;47.620;18.786;2023-06-04T03:25:58;5.40;;;2.00;;
67757;SDS011;54562;47.620;18.786;2023-06-04T03:29:04;5.20;;;1.90;;
67757;SDS011;54562;47.620;18.786;2023-06-04T03:32:11;4.40;;;1.90;;
67757;SDS011;54562;47.620;18.786;2023-06-04T03:35:19;6.70;;;2.10;;
67757;SDS011;54562;47.620;18.786;2023-06-04T03:38:25;6.40;;;2.10;;
67757;SDS011;54562;47.620;18.786;2023-06-04T03:41:31;6.70;;;1.80;;
67757;SDS011;54562;47.620;18.786;2023-06-04T03:44:38;6.30;;;2.10;;
67757;SDS011;54562;47.620;18.786;2023-06-04T03:47:45;6.00;;;1.90;;
67757;SDS011;54562;47.620;18.786;2023-06-04T03:50:51;5.30;;;2.10;;
67757;SDS011;54562;47.620;18.786;2023-06-04T03:53:58;4.40;;;1.90;;
67757;SDS011;54562;47.620;18.786;2023-06-04T03:57:05;4.60;;;2.00;;
67757;SDS011;54562;47.620;18.786;2023-06-04T04:00:13;5.20;;;1.90;;
67757;SDS011;54562;47.620;18.786;2023-06-04T04:03:21;4.60;;;1.80;;
67757;SDS011;54562;47.620;18.786;2023-06-04T04:06:28;5.30;;;1.90;;
67757;SDS011;54562;47.620;18.786;2023-06-04T04:09:34;5.30;;;2.00;;
67757;SDS011;54562;47.620;18.786;2023-06-04T04:12:40;5.90;;;1.90;;
67757;SDS011;54562;47.620;18.786;2023-06-04T04:15:47;5.90;;;2.00;;
67757;SDS011;54562;47.620;18.786;2023-06-04T04:18:56;7.20;;;2.00;;
67757;SDS011;54562;47.620;18.786;2023-06-04T04:22:02;4.80;;;1.90;;
67757;SDS011;54562;47.620;18.786;2023-06-04T04:25:10;6.50;;;2.20;;
67757;SDS011;54562;47.620;18.786;2023-06-04T04:28:17;4.30;;;1.90;;
67757;SDS011;54562;47.620;18.786;2023-06-04T04:31:23;4.70;;;1.90;;
67757;SDS011;54562;47.620;18.786;2023-06-04T04:34:30;6.50;;;2.00;;
67757;SDS011;54562;47.620;18.786;2023-06-04T04:37:37;4.70;;;2.00;;
67757;SDS011;54562;47.620;18.786;2023-06-04T04:40:43;5.60;;;2.00;;
67757;SDS011;54562;47.620;18.786;2023-06-04T04:43:52;4.10;;;1.90;;
67757;SDS011;54562;47.620;18.786;2023-06-04T04:46:59;4.50;;;1.80;;
67757;SDS011;54562;47.620;18.786;2023-06-04T04:50:07;6.10;;;2.10;;
67757;SDS011;54562;47.620;18.786;2023-06-04T04:53:13;6.10;;;2.00;;
67757;SDS011;54562;47.620;18.786;2023-06-04T04:56:19;6.50;;;2.10;;
67757;SDS011;54562;47.620;18.786;2023-06-04T04:59:26;4.90;;;2.00;;
67757;SDS011;54562;47.620;18.786;2023-06-04T05:02:34;6.00;;;2.00;;
67757;SDS011;54562;47.620;18.786;2023-06-04T05:05:40;6.30;;;2.00;;
67757;SDS011;54562;47.620;18.786;2023-06-04T05:08:47;5.90;;;2.00;;
67757;SDS011;54562;47.620;18.786;2023-06-04T05:11:54;3.70;;;1.60;;
67757;SDS011;54562;47.620;18.786;2023-06-04T05:15:00;6.20;;;1.90;;
67757;SDS011;54562;47.620;18.786;2023-06-04T05:18:07;4.40;;;1.90;;
67757;SDS011;54562;47.620;18.786;2023-06-04T05:21:15;4.70;;;2.10;;
67757;SDS011;54562;47.620;18.786;2023-06-04T05:24:21;5.40;;;1.80;;
67757;SDS011;54562;47.620;18.786;2023-06-04T05:27:28;6.70;;;2.00;;
67757;SDS011;54562;47.620;18.786;2023-06-04T05:30:34;7.10;;;2.40;;
67757;SDS011;54562;47.620;18.786;2023-06-04T05:33:45;5.20;;;1.90;;
67757;SDS011;54562;47.620;18.786;2023-06-04T05:36:52;5.10;;;2.10;;
67757;SDS011;54562;47.620;18.786;2023-06-04T05:40:00;5.50;;;2.00;;
67757;SDS011;54562;47.620;18.786;2023-06-04T05:43:09;5.80;;;1.90;;
67757;SDS011;54562;47.620;18.786;2023-06-04T05:46:15;4.40;;;2.00;;
67757;SDS011;54562;47.620;18.786;2023-06-04T05:49:21;5.60;;;2.10;;
67757;SDS011;54562;47.620;18.786;2023-06-04T05:52:28;5.00;;;1.80;;
67757;SDS011;54562;47.620;18.786;2023-06-04T05:55:35;6.00;;;2.10;;
67757;SDS011;54562;47.620;18.786;2023-06-04T05:58:43;5.80;;;1.90;;
67757;SDS011;54562;47.620;18.786;2023-06-04T06:04:56;5.10;;;2.10;;
67757;SDS011;54562;47.620;18.786;2023-06-04T06:08:03;6.80;;;2.10;;
67757;SDS011;54562;47.620;18.786;2023-06-04T06:11:10;5.80;;;2.10;;
67757;SDS011;54562;47.620;18.786;2023-06-04T06:14:16;4.40;;;1.70;;
67757;SDS011;54562;47.620;18.786;2023-06-04T06:17:23;5.60;;;2.00;;
67757;SDS011;54562;47.620;18.786;2023-06-04T06:20:29;5.50;;;1.70;;
67757;SDS011;54562;47.620;18.786;2023-06-04T06:23:35;4.30;;;1.80;;
67757;SDS011;54562;47.620;18.786;2023-06-04T06:26:42;5.70;;;1.90;;
67757;SDS011;54562;47.620;18.786;2023-06-04T06:29:48;5.10;;;1.90;;
67757;SDS011;54562;47.620;18.786;2023-06-04T06:32:56;5.50;;;2.00;;
67757;SDS011;54562;47.620;18.786;2023-06-04T06:36:03;4.90;;;1.90;;
67757;SDS011;54562;47.620;18.786;2023-06-04T06:39:10;5.40;;;2.00;;
67757;SDS011;54562;47.620;18.786;2023-06-04T06:42:17;4.90;;;2.00;;
67757;SDS011;54562;47.620;18.786;2023-06-04T06:45:23;4.70;;;2.00;;
67757;SDS011;54562;47.620;18.786;2023-06-04T06:48:29;4.80;;;1.90;;
67757;SDS011;54562;47.620;18.786;2023-06-04T06:51:36;4.00;;;1.70;;
67757;SDS011;54562;47.620;18.786;2023-06-04T06:54:42;5.30;;;2.10;;
67757;SDS011;54562;47.620;18.786;2023-06-04T06:57:48;4.90;;;2.10;;
67757;SDS011;54562;47.620;18.786;2023-06-04T07:00:57;4.60;;;2.00;;
67757;SDS011;54562;47.620;18.786;2023-06-04T07:04:03;6.40;;;2.10;;
67757;SDS011;54562;47.620;18.786;2023-06-04T07:07:10;4.90;;;1.90;;
67757;SDS011;54562;47.620;18.786;2023-06-04T07:10:20;5.30;;;2.00;;
67757;SDS011;54562;47.620;18.786;2023-06-04T07:13:26;5.00;;;1.80;;
67757;SDS011;54562;47.620;18.786;2023-06-04T07:16:35;5.00;;;2.00;;
67757;SDS011;54562;47.620;18.786;2023-06-04T07:19:41;4.70;;;1.80;;
67757;SDS011;54562;47.620;18.786;2023-06-04T07:22:48;4.10;;;1.80;;
67757;SDS011;54562;47.620;18.786;2023-06-04T07:25:54;4.60;;;2.10;;
67757;SDS011;54562;47.620;18.786;2023-06-04T07:29:01;5.30;;;2.10;;
67757;SDS011;54562;47.620;18.786;2023-06-04T07:32:07;5.50;;;2.10;;
67757;SDS011;54562;47.620;18.786;2023-06-04T07:35:13;7.30;;;2.20;;
67757;SDS011;54562;47.620;18.786;2023-06-04T07:38:20;7.70;;;2.10;;
67757;SDS011;54562;47.620;18.786;2023-06-04T07:41:26;6.40;;;2.00;;
67757;SDS011;54562;47.620;18.786;2023-06-04T07:44:33;6.00;;;2.10;;
67757;SDS011;54562;47.620;18.786;2023-06-04T07:47:39;4.80;;;1.90;;
67757;SDS011;54562;47.620;18.786;2023-06-04T07:50:45;5.50;;;2.00;;
67757;SDS011;54562;47.620;18.786;2023-06-04T07:53:52;5.50;;;2.00;;
67757;SDS011;54562;47.620;18.786;2023-06-04T07:56:58;5.20;;;1.90;;
67757;SDS011;54562;47.620;18.786;2023-06-04T08:00:05;7.10;;;2.10;;
67757;SDS011;54562;47.620;18.786;2023-06-04T08:03:14;4.90;;;1.90;;
67757;SDS011;54562;47.620;18.786;2023-06-04T08:06:22;7.00;;;1.90;;
67757;SDS011;54562;47.620;18.786;2023-06-04T08:09:29;6.20;;;1.90;;
67757;SDS011;54562;47.620;18.786;2023-06-04T08:12:36;9.80;;;2.10;;
67757;SDS011;54562;47.620;18.786;2023-06-04T08:15:43;5.80;;;2.00;;
67757;SDS011;54562;47.620;18.786;2023-06-04T08:18:49;6.50;;;2.10;;
67757;SDS011;54562;47.620;18.786;2023-06-04T08:21:56;6.20;;;2.00;;
67757;SDS011;54562;47.620;18.786;2023-06-04T08:25:03;6.20;;;2.20;;
67757;SDS011;54562;47.620;18.786;2023-06-04T08:28:10;5.20;;;2.00;;
67757;SDS011;54562;47.620;18.786;2023-06-04T08:31:19;7.20;;;2.20;;
67757;SDS011;54562;47.620;18.786;2023-06-04T08:34:26;5.90;;;2.00;;
67757;SDS011;54562;47.620;18.786;2023-06-04T08:37:32;6.10;;;2.00;;
67757;SDS011;54562;47.620;18.786;2023-06-04T08:40:38;6.70;;;2.20;;
67757;SDS011;54562;47.620;18.786;2023-06-04T08:43:46;5.30;;;2.00;;
67757;SDS011;54562;47.620;18.786;2023-06-04T08:46:54;8.50;;;1.90;;
67757;SDS011;54562;47.620;18.786;2023-06-04T08:50:07;7.80;;;2.00;;
67757;SDS011;54562;47.620;18.786;2023-06-04T08:53:15;4.40;;;1.90;;
67757;SDS011;54562;47.620;18.786;2023-06-04T08:56:22;7.30;;;2.00;;
67757;SDS011;54562;47.620;18.786;2023-06-04T08:59:31;4.80;;;1.90;;
67757;SDS011;54562;47.620;18.786;2023-06-04T09:02:38;6.00;;;2.10;;
67757;SDS011;54562;47.620;18.786;2023-06-04T09:05:44;7.70;;;2.00;;
67757;SDS011;54562;47.620;18.786;2023-06-04T09:08:52;4.40;;;1.90;;
67757;SDS011;54562;47.620;18.786;2023-06-04T09:12:00;7.10;;;2.30;;
67757;SDS011;54562;47.620;18.786;2023-06-04T09:15:08;4.80;;;1.90;;
67757;SDS011;54562;47.620;18.786;2023-06-04T09:18:15;5.60;;;2.10;;
67757;SDS011;54562;47.620;18.786;2023-06-04T09:21:21;7.80;;;2.30;;
67757;SDS011;54562;47.620;18.786;2023-06-04T09:24:38;6.90;;;2.10;;
67757;SDS011;54562;47.620;18.786;2023-06-04T09:27:46;5.60;;;2.00;;
67757;SDS011;54562;47.620;18.786;2023-06-04T09:30:53;4.20;;;1.80;;
67757;SDS011;54562;47.620;18.786;2023-06-04T09:34:01;8.20;;;2.40;;
67757;SDS011;54562;47.620;18.786;2023-06-04T09:37:13;5.80;;;2.00;;
67757;SDS011;54562;47.620;18.786;2023-06-04T09:40:21;7.30;;;2.20;;
67757;SDS011;54562;47.620;18.786;2023-06-04T09:43:27;5.90;;;2.00;;
67757;SDS011;54562;47.620;18.786;2023-06-04T09:46:33;7.20;;;2.30;;
67757;SDS011;54562;47.620;18.786;2023-06-04T09:49:43;8.50;;;2.30;;
67757;SDS011;54562;47.620;18.786;2023-06-04T09:52:49;5.60;;;2.10;;
67757;SDS011;54562;47.620;18.786;2023-06-04T09:55:59;4.60;;;2.00;;
67757;SDS011;54562;47.620;18.786;2023-06-04T09:59:08;5.70;;;2.10;;
67757;SDS011;54562;47.620;18.786;2023-06-04T10:02:15;5.20;;;2.10;;
67757;SDS011;54562;47.620;18.786;2023-06-04T10:05:24;6.90;;;2.10;;
67757;SDS011;54562;47.620;18.786;2023-06-04T10:08:31;6.60;;;2.00;;
67757;SDS011;54562;47.620;18.786;2023-06-04T10:11:39;5.00;;;2.10;;
67757;SDS011;54562;47.620;18.786;2023-06-04T10:14:51;6.80;;;2.10;;
67757;SDS011;54562;47.620;18.786;2023-06-04T10:17:59;6.10;;;1.90;;
67757;SDS011;54562;47.620;18.786;2023-06-04T10:21:09;5.00;;;1.80;;
67757;SDS011;54562;47.620;18.786;2023-06-04T10:24:20;5.70;;;2.00;;
67757;SDS011;54562;47.620;18.786;2023-06-04T10:27:29;7.10;;;1.80;;
67757;SDS011;54562;47.620;18.786;2023-06-04T10:30:38;7.20;;;2.10;;
67757;SDS011;54562;47.620;18.786;2023-06-04T10:33:45;4.80;;;2.00;;
67757;SDS011;54562;47.620;18.786;2023-06-04T10:36:52;10.60;;;2.10;;
67757;SDS011;54562;47.620;18.786;2023-06-04T10:39:59;8.90;;;2.00;;
67757;SDS011;54562;47.620;18.786;2023-06-04T10:43:08;5.10;;;2.10;;
67757;SDS011;54562;47.620;18.786;2023-06-04T10:46:15;6.20;;;2.00;;
67757;SDS011;54562;47.620;18.786;2023-06-04T10:49:29;6.10;;;2.00;;
67757;SDS011;54562;47.620;18.786;2023-06-04T10:52:36;7.60;;;2.00;;
67757;SDS011;54562;47.620;18.786;2023-06-04T10:55:44;8.70;;;2.20;;
67757;SDS011;54562;47.620;18.786;2023-06-04T10:58:51;16.20;;;2.70;;
67757;SDS011;54562;47.620;18.786;2023-06-04T11:02:05;6.00;;;2.30;;
67757;SDS011;54562;47.620;18.786;2023-06-04T11:05:13;6.30;;;2.20;;
67757;SDS011;54562;47.620;18.786;2023-06-04T11:08:27;4.90;;;2.10;;
67757;SDS011;54562;47.620;18.786;2023-06-04T11:11:34;5.50;;;2.00;;
67757;SDS011;54562;47.620;18.786;2023-06-04T11:14:40;6.10;;;2.00;;
67757;SDS011;54562;47.620;18.786;2023-06-04T11:17:50;5.20;;;2.40;;
67757;SDS011;54562;47.620;18.786;2023-06-04T11:21:01;5.30;;;1.90;;
67757;SDS011;54562;47.620;18.786;2023-06-04T11:24:08;6.50;;;2.20;;
67757;SDS011;54562;47.620;18.786;2023-06-04T11:27:16;6.70;;;2.30;;
67757;SDS011;54562;47.620;18.786;2023-06-04T11:30:38;6.10;;;2.00;;
67757;SDS011;54562;47.620;18.786;2023-06-04T11:33:45;5.90;;;2.10;;
67757;SDS011;54562;47.620;18.786;2023-06-04T11:36:51;8.90;;;2.30;;
67757;SDS011;54562;47.620;18.786;2023-06-04T11:39:58;6.00;;;1.90;;
67757;SDS011;54562;47.620;18.786;2023-06-04T11:43:05;12.20;;;2.80;;
67757;SDS011;54562;47.620;18.786;2023-06-04T11:46:13;6.90;;;1.90;;
67757;SDS011;54562;47.620;18.786;2023-06-04T11:49:19;10.00;;;2.20;;
67757;SDS011;54562;47.620;18.786;2023-06-04T11:52:26;7.20;;;2.00;;
67757;SDS011;54562;47.620;18.786;2023-06-04T11:55:33;5.60;;;2.00;;
67757;SDS011;54562;47.620;18.786;2023-06-04T11:58:42;5.60;;;2.20;;
67757;SDS011;54562;47.620;18.786;2023-06-04T12:01:49;5.40;;;2.10;;
67757;SDS011;54562;47.620;18.786;2023-06-04T12:04:57;7.80;;;2.20;;
67757;SDS011;54562;47.620;18.786;2023-06-04T12:08:06;8.70;;;2.10;;
67757;SDS011;54562;47.620;18.786;2023-06-04T12:11:23;6.60;;;2.20;;
67757;SDS011;54562;47.620;18.786;2023-06-04T12:14:31;5.60;;;2.10;;
67757;SDS011;54562;47.620;18.786;2023-06-04T12:17:48;6.50;;;2.30;;
67757;SDS011;54562;47.620;18.786;2023-06-04T12:20:58;10.10;;;2.20;;
67757;SDS011;54562;47.620;18.786;2023-06-04T12:24:07;13.30;;;3.20;;
67757;SDS011;54562;47.620;18.786;2023-06-04T12:27:15;10.70;;;2.30;;
67757;SDS011;54562;47.620;18.786;2023-06-04T12:30:22;11.70;;;2.10;;
67757;SDS011;54562;47.620;18.786;2023-06-04T12:33:35;6.80;;;2.30;;
67757;SDS011;54562;47.620;18.786;2023-06-04T12:36:42;5.40;;;2.10;;
67757;SDS011;54562;47.620;18.786;2023-06-04T12:39:48;9.30;;;2.50;;
67757;SDS011;54562;47.620;18.786;2023-06-04T12:42:55;4.80;;;2.00;;
67757;SDS011;54562;47.620;18.786;2023-06-04T12:46:01;5.80;;;2.30;;
67757;SDS011;54562;47.620;18.786;2023-06-04T12:49:09;4.90;;;2.00;;
67757;SDS011;54562;47.620;18.786;2023-06-04T12:52:16;11.70;;;2.40;;
67757;SDS011;54562;47.620;18.786;2023-06-04T12:55:22;11.90;;;2.40;;
67757;SDS011;54562;47.620;18.786;2023-06-04T12:58:30;5.10;;;2.10;;
67757;SDS011;54562;47.620;18.786;2023-06-04T13:01:37;6.30;;;2.30;;
67757;SDS011;54562;47.620;18.786;2023-06-04T13:04:44;7.00;;;2.30;;
67757;SDS011;54562;47.620;18.786;2023-06-04T13:07:50;7.20;;;2.50;;
67757;SDS011;54562;47.620;18.786;2023-06-04T13:10:57;7.50;;;2.80;;
67757;SDS011;54562;47.620;18.786;2023-06-04T13:14:03;9.20;;;3.00;;
67757;SDS011;54562;47.620;18.786;2023-06-04T13:17:09;5.70;;;2.90;;
67757;SDS011;54562;47.620;18.786;2023-06-04T13:20:23;6.50;;;2.40;;
67757;SDS011;54562;47.620;18.786;2023-06-04T13:23:29;7.10;;;2.50;;
67757;SDS011;54562;47.620;18.786;2023-06-04T13:26:52;5.70;;;2.50;;
67757;SDS011;54562;47.620;18.786;2023-06-04T13:29:59;6.40;;;2.70;;
67757;SDS011;54562;47.620;18.786;2023-06-04T13:33:05;6.20;;;2.40;;
67757;SDS011;54562;47.620;18.786;2023-06-04T13:36:12;5.80;;;2.50;;
67757;SDS011;54562;47.620;18.786;2023-06-04T13:39:18;6.70;;;2.50;;
67757;SDS011;54562;47.620;18.786;2023-06-04T13:42:25;6.20;;;2.10;;
67757;SDS011;54562;47.620;18.786;2023-06-04T13:45:32;7.80;;;2.60;;
67757;SDS011;54562;47.620;18.786;2023-06-04T13:48:38;6.40;;;2.20;;
67757;SDS011;54562;47.620;18.786;2023-06-04T13:51:44;7.10;;;2.20;;
67757;SDS011;54562;47.620;18.786;2023-06-04T13:54:51;7.30;;;2.50;;
67757;SDS011;54562;47.620;18.786;2023-06-04T13:57:57;9.40;;;2.40;;
67757;SDS011;54562;47.620;18.786;2023-06-04T14:01:04;7.40;;;2.30;;
67757;SDS011;54562;47.620;18.786;2023-06-04T14:04:11;6.40;;;2.20;;
67757;SDS011;54562;47.620;18.786;2023-06-04T14:07:17;9.30;;;2.50;;
67757;SDS011;54562;47.620;18.786;2023-06-04T14:10:24;8.00;;;2.40;;
67757;SDS011;54562;47.620;18.786;2023-06-04T14:13:30;5.90;;;2.70;;
67757;SDS011;54562;47.620;18.786;2023-06-04T14:16:37;5.30;;;2.40;;
67757;SDS011;54562;47.620;18.786;2023-06-04T14:19:44;5.40;;;2.30;;
67757;SDS011;54562;47.620;18.786;2023-06-04T14:22:51;6.00;;;2.20;;
67757;SDS011;54562;47.620;18.786;2023-06-04T14:25:57;6.00;;;2.50;;
67757;SDS011;54562;47.620;18.786;2023-06-04T14:29:04;5.70;;;2.30;;
67757;SDS011;54562;47.620;18.786;2023-06-04T14:32:10;6.20;;;2.30;;
67757;SDS011;54562;47.620;18.786;2023-06-04T14:35:17;5.50;;;2.20;;
67757;SDS011;54562;47.620;18.786;2023-06-04T14:38:23;6.10;;;2.50;;
67757;SDS011;54562;47.620;18.786;2023-06-04T14:41:30;6.40;;;2.60;;
67757;SDS011;54562;47.620;18.786;2023-06-04T14:44:37;6.00;;;2.50;;
67757;SDS011;54562;47.620;18.786;2023-06-04T14:47:43;6.10;;;2.50;;
67757;SDS011;54562;47.620;18.786;2023-06-04T14:50:55;5.10;;;2.50;;
67757;SDS011;54562;47.620;18.786;2023-06-04T14:54:01;6.20;;;2.50;;
67757;SDS011;54562;47.620;18.786;2023-06-04T14:57:08;9.00;;;2.60;;
67757;SDS011;54562;47.620;18.786;2023-06-04T15:00:16;6.20;;;2.50;;
67757;SDS011;54562;47.620;18.786;2023-06-04T15:03:23;6.10;;;2.50;;
67757;SDS011;54562;47.620;18.786;2023-06-04T15:06:29;5.20;;;2.40;;
67757;SDS011;54562;47.620;18.786;2023-06-04T15:09:36;7.60;;;2.30;;
67757;SDS011;54562;47.620;18.786;2023-06-04T15:12:43;5.90;;;2.50;;
67757;SDS011;54562;47.620;18.786;2023-06-04T15:15:50;6.70;;;2.50;;
67757;SDS011;54562;47.620;18.786;2023-06-04T15:18:56;6.50;;;2.40;;
67757;SDS011;54562;47.620;18.786;2023-06-04T15:22:03;6.00;;;2.50;;
67757;SDS011;54562;47.620;18.786;2023-06-04T15:25:09;8.60;;;2.60;;
67757;SDS011;54562;47.620;18.786;2023-06-04T15:28:17;5.80;;;2.40;;
67757;SDS011;54562;47.620;18.786;2023-06-04T15:31:24;5.20;;;2.40;;
67757;SDS011;54562;47.620;18.786;2023-06-04T15:34:30;8.40;;;2.90;;
67757;SDS011;54562;47.620;18.786;2023-06-04T15:37:37;6.20;;;2.70;;
67757;SDS011;54562;47.620;18.786;2023-06-04T15:40:43;6.20;;;2.60;;
67757;SDS011;54562;47.620;18.786;2023-06-04T15:43:50;7.40;;;2.70;;
67757;SDS011;54562;47.620;18.786;2023-06-04T15:46:57;8.30;;;2.80;;
67757;SDS011;54562;47.620;18.786;2023-06-04T15:50:05;6.50;;;2.70;;
67757;SDS011;54562;47.620;18.786;2023-06-04T15:53:12;9.00;;;2.90;;
67757;SDS011;54562;47.620;18.786;2023-06-04T15:56:18;5.90;;;2.60;;
67757;SDS011;54562;47.620;18.786;2023-06-04T15:59:25;6.70;;;2.60;;
67757;SDS011;54562;47.620;18.786;2023-06-04T16:02:31;5.30;;;2.50;;
67757;SDS011;54562;47.620;18.786;2023-06-04T16:05:38;5.60;;;2.70;;
67757;SDS011;54562;47.620;18.786;2023-06-04T16:08:45;5.70;;;2.60;;
67757;SDS011;54562;47.620;18.786;2023-06-04T16:11:51;5.60;;;2.70;;
67757;SDS011;54562;47.620;18.786;2023-06-04T16:14:57;7.00;;;2.80;;
67757;SDS011;54562;47.620;18.786;2023-06-04T16:18:04;10.70;;;2.80;;
67757;SDS011;54562;47.620;18.786;2023-06-04T16:21:10;10.60;;;3.20;;
67757;SDS011;54562;47.620;18.786;2023-06-04T16:24:17;7.10;;;2.70;;
67757;SDS011;54562;47.620;18.786;2023-06-04T16:27:23;5.80;;;2.80;;
67757;SDS011;54562;47.620;18.786;2023-06-04T16:30:30;9.70;;;3.00;;
67757;SDS011;54562;47.620;18.786;2023-06-04T16:33:37;8.20;;;2.80;;
67757;SDS011;54562;47.620;18.786;2023-06-04T16:36:43;6.10;;;3.00;;
67757;SDS011;54562;47.620;18.786;2023-06-04T16:39:50;6.00;;;2.80;;
67757;SDS011;54562;47.620;18.786;2023-06-04T16:42:56;7.80;;;2.90;;
67757;SDS011;54562;47.620;18.786;2023-06-04T16:46:02;9.80;;;3.20;;
67757;SDS011;54562;47.620;18.786;2023-06-04T16:49:09;5.80;;;2.70;;
67757;SDS011;54562;47.620;18.786;2023-06-04T16:52:15;7.20;;;3.10;;
67757;SDS011;54562;47.620;18.786;2023-06-04T16:55:29;7.60;;;3.10;;
67757;SDS011;54562;47.620;18.786;2023-06-04T16:58:36;6.70;;;3.10;;
67757;SDS011;54562;47.620;18.786;2023-06-04T17:01:43;11.40;;;3.30;;
67757;SDS011;54562;47.620;18.786;2023-06-04T17:04:49;7.30;;;3.10;;
67757;SDS011;54562;47.620;18.786;2023-06-04T17:07:57;6.70;;;2.90;;
67757;SDS011;54562;47.620;18.786;2023-06-04T17:11:04;9.50;;;3.40;;
67757;SDS011;54562;47.620;18.786;2023-06-04T17:14:12;6.80;;;3.40;;
67757;SDS011;54562;47.620;18.786;2023-06-04T17:17:18;22.50;;;4.10;;
67757;SDS011;54562;47.620;18.786;2023-06-04T17:20:25;8.70;;;3.40;;
67757;SDS011;54562;47.620;18.786;2023-06-04T17:23:32;8.70;;;3.60;;
67757;SDS011;54562;47.620;18.786;2023-06-04T17:26:40;8.50;;;3.70;;
67757;SDS011;54562;47.620;18.786;2023-06-04T17:29:46;7.30;;;3.50;;
67757;SDS011;54562;47.620;18.786;2023-06-04T17:32:53;8.70;;;3.60;;
67757;SDS011;54562;47.620;18.786;2023-06-04T17:36:00;7.80;;;3.60;;
67757;SDS011;54562;47.620;18.786;2023-06-04T17:39:07;8.80;;;3.60;;
67757;SDS011;54562;47.620;18.786;2023-06-04T17:42:13;8.30;;;3.60;;
67757;SDS011;54562;47.620;18.786;2023-06-04T17:45:20;8.20;;;3.70;;
67757;SDS011;54562;47.620;18.786;2023-06-04T17:48:26;7.10;;;3.50;;
67757;SDS011;54562;47.620;18.786;2023-06-04T17:51:34;8.90;;;3.20;;
67757;SDS011;54562;47.620;18.786;2023-06-04T17:54:41;7.20;;;3.40;;
67757;SDS011;54562;47.620;18.786;2023-06-04T17:57:47;8.00;;;3.50;;
67757;SDS011;54562;47.620;18.786;2023-06-04T18:00:54;9.20;;;3.30;;
67757;SDS011;54562;47.620;18.786;2023-06-04T18:04:01;9.30;;;3.20;;
67757;SDS011;54562;47.620;18.786;2023-06-04T18:07:07;8.30;;;3.00;;
67757;SDS011;54562;47.620;18.786;2023-06-04T18:10:13;8.70;;;3.20;;
67757;SDS011;54562;47.620;18.786;2023-06-04T18:13:21;7.30;;;2.90;;
67757;SDS011;54562;47.620;18.786;2023-06-04T18:16:27;7.80;;;3.20;;
67757;SDS011;54562;47.620;18.786;2023-06-04T18:19:33;7.50;;;3.30;;
67757;SDS011;54562;47.620;18.786;2023-06-04T18:22:39;7.20;;;3.30;;
67757;SDS011;54562;47.620;18.786;2023-06-04T18:25:46;9.10;;;3.50;;
67757;SDS011;54562;47.620;18.786;2023-06-04T18:28:53;7.00;;;3.20;;
67757;SDS011;54562;47.620;18.786;2023-06-04T18:31:59;7.40;;;3.10;;
67757;SDS011;54562;47.620;18.786;2023-06-04T18:35:06;6.40;;;3.10;;
67757;SDS011;54562;47.620;18.786;2023-06-04T18:38:13;6.10;;;2.80;;
67757;SDS011;54562;47.620;18.786;2023-06-04T18:41:20;6.10;;;3.00;;